createdAt,value
2018-08-09T00:01:26.870Z,21.91
2018-08-09T00:03:54.179Z,21.88
2018-08-09T00:06:21.443Z,21.88
2018-08-09T00:08:48.745Z,21.89
2018-08-09T00:11:16.062Z,21.85
2018-08-09T00:13:43.359Z,21.83
2018-08-09T00:16:12.245Z,21.79
2018-08-09T00:18:41.261Z,21.76
2018-08-09T00:21:08.553Z,21.63
2018-08-09T00:23:35.828Z,21.49
2018-08-09T00:26:03.139Z,21.36
2018-08-09T00:28:30.379Z,21.28
2018-08-09T00:30:57.608Z,21.23
2018-08-09T00:33:24.869Z,21.22
2018-08-09T00:35:52.114Z,21.20
2018-08-09T00:38:19.383Z,21.18
2018-08-09T00:40:46.665Z,21.19
2018-08-09T00:43:13.907Z,21.15
2018-08-09T00:45:41.138Z,21.10
2018-08-09T00:48:08.443Z,21.04
2018-08-09T00:50:35.665Z,20.99
2018-08-09T00:53:02.970Z,21.07
2018-08-09T00:55:30.296Z,21.12
2018-08-09T00:57:57.526Z,21.14
2018-08-09T01:00:24.830Z,21.14
2018-08-09T01:02:52.072Z,21.06
2018-08-09T01:05:19.350Z,20.99
2018-08-09T01:07:46.687Z,20.89
2018-08-09T01:10:13.950Z,20.85
2018-08-09T01:12:41.195Z,20.85
2018-08-09T01:15:08.470Z,20.86
2018-08-09T01:17:35.733Z,20.80
2018-08-09T01:20:03.842Z,20.72
2018-08-09T01:22:31.086Z,20.65
2018-08-09T01:24:58.328Z,20.64
2018-08-09T01:27:25.549Z,20.73
2018-08-09T01:29:52.816Z,20.81
2018-08-09T01:32:20.082Z,20.77
2018-08-09T01:34:47.385Z,20.72
2018-08-09T01:37:14.642Z,20.73
2018-08-09T01:39:41.918Z,20.67
2018-08-09T01:42:20.677Z,20.61
2018-08-09T01:44:47.916Z,20.50
2018-08-09T01:47:15.162Z,20.43
2018-08-09T01:49:42.407Z,20.34
2018-08-09T01:52:09.734Z,20.26
2018-08-09T01:54:37.018Z,20.30
2018-08-09T01:57:04.339Z,20.29
2018-08-09T01:59:32.331Z,20.22
2018-08-09T02:01:59.534Z,20.16
2018-08-09T02:04:26.795Z,20.11
2018-08-09T02:06:54.054Z,20.02
2018-08-09T02:09:26.930Z,19.99
2018-08-09T02:11:54.198Z,19.96
2018-08-09T02:14:21.492Z,19.86
2018-08-09T02:16:48.712Z,19.72
2018-08-09T02:19:15.988Z,19.68
2018-08-09T02:21:43.239Z,19.67
2018-08-09T02:24:10.504Z,19.68
2018-08-09T02:26:37.785Z,19.72
2018-08-09T02:29:05.093Z,19.70
2018-08-09T02:31:32.338Z,19.68
2018-08-09T02:33:59.584Z,19.63
2018-08-09T02:36:26.888Z,19.59
2018-08-09T02:38:54.136Z,19.52
2018-08-09T02:41:21.538Z,19.47
2018-08-09T02:43:48.804Z,19.45
2018-08-09T02:46:16.125Z,19.48
2018-08-09T02:48:43.371Z,19.55
2018-08-09T02:51:10.647Z,19.60
2018-08-09T02:53:37.909Z,19.61
2018-08-09T02:56:05.192Z,19.50
2018-08-09T02:58:32.436Z,19.37
2018-08-09T03:00:59.729Z,19.29
2018-08-09T03:03:26.995Z,19.28
2018-08-09T03:05:54.262Z,19.21
2018-08-09T03:08:21.510Z,19.18
2018-08-09T03:10:48.768Z,19.16
2018-08-09T03:13:16.022Z,19.12
2018-08-09T03:15:43.289Z,19.09
2018-08-09T03:18:11.459Z,19.12
2018-08-09T03:20:40.667Z,19.18
2018-08-09T03:23:09.025Z,19.23
2018-08-09T03:25:36.306Z,19.26
2018-08-09T03:28:03.584Z,19.32
2018-08-09T03:30:30.877Z,19.31
2018-08-09T03:32:58.175Z,19.14
2018-08-09T03:35:25.501Z,19.08
2018-08-09T03:37:52.832Z,19.02
2018-08-09T03:40:20.163Z,18.99
2018-08-09T03:42:47.484Z,18.94
2018-08-09T03:45:14.856Z,18.90
2018-08-09T03:47:42.170Z,18.90
2018-08-09T03:50:09.541Z,18.96
2018-08-09T03:52:37.474Z,19.04
2018-08-09T03:55:05.662Z,19.00
2018-08-09T03:57:33.063Z,18.95
2018-08-09T04:00:00.406Z,18.96
2018-08-09T04:02:28.557Z,18.95
2018-08-09T04:04:55.962Z,18.92
2018-08-09T04:07:23.361Z,18.89
2018-08-09T04:09:50.812Z,18.98
2018-08-09T04:12:18.236Z,18.99
2018-08-09T04:14:46.478Z,19.01
2018-08-09T04:17:18.723Z,18.99
2018-08-09T04:19:46.483Z,18.93
2018-08-09T04:22:13.967Z,18.87
2018-08-09T04:24:42.371Z,18.94
2018-08-09T04:27:09.788Z,19.08
2018-08-09T04:29:37.219Z,19.19
2018-08-09T04:32:04.592Z,19.28
2018-08-09T04:34:31.951Z,19.28
2018-08-09T04:36:59.353Z,19.30
2018-08-09T04:39:26.651Z,19.43
2018-08-09T04:41:54.266Z,19.64
2018-08-09T04:44:21.569Z,19.85
2018-08-09T04:46:49.683Z,20.05
2018-08-09T04:49:17.028Z,20.21
2018-08-09T04:51:44.368Z,20.40
2018-08-09T04:54:11.702Z,20.60
2018-08-09T04:56:39.069Z,20.82
2018-08-09T04:59:06.394Z,20.99
2018-08-09T05:01:33.720Z,21.14
2018-08-09T05:04:01.045Z,21.27
2018-08-09T05:06:28.394Z,21.40
2018-08-09T05:08:55.729Z,21.50
2018-08-09T05:11:25.198Z,21.64
2018-08-09T05:13:52.655Z,21.71
2018-08-09T05:16:20.015Z,21.84
2018-08-09T05:18:48.484Z,21.99
2018-08-09T05:21:16.901Z,22.16
2018-08-09T05:23:44.236Z,22.36
2018-08-09T05:26:11.586Z,22.53
2018-08-09T05:28:39.005Z,22.65
2018-08-09T05:31:06.499Z,22.76
2018-08-09T05:33:33.893Z,22.96
2018-08-09T05:36:01.243Z,23.13
2018-08-09T05:38:28.663Z,23.21
2018-08-09T05:40:56.042Z,23.29
2018-08-09T05:43:23.384Z,23.38
2018-08-09T05:45:51.366Z,23.35
2018-08-09T05:48:18.837Z,23.45
2018-08-09T05:50:46.315Z,23.57
2018-08-09T05:53:13.778Z,23.71
2018-08-09T05:55:41.216Z,23.75
2018-08-09T05:58:08.886Z,23.79
2018-08-09T06:00:36.303Z,23.67
2018-08-09T06:03:04.321Z,23.88
2018-08-09T06:08:04.192Z,24.08
2018-08-09T06:10:32.772Z,24.25
2018-08-09T06:13:00.159Z,24.38
2018-08-09T06:15:27.740Z,24.41
2018-08-09T06:17:55.067Z,24.52
2018-08-09T06:20:22.451Z,24.60
2018-08-09T06:22:50.144Z,24.69
2018-08-09T06:25:18.132Z,24.72
2018-08-09T06:27:45.579Z,24.75
2018-08-09T06:30:12.996Z,24.98
2018-08-09T06:32:41.079Z,25.06
2018-08-09T06:35:09.642Z,25.21
2018-08-09T06:37:37.347Z,25.15
2018-08-09T06:40:07.286Z,25.33
2018-08-09T06:42:34.686Z,25.36
2018-08-09T06:45:04.410Z,25.34
2018-08-09T06:47:31.934Z,25.48
2018-08-09T06:49:59.267Z,25.49
2018-08-09T06:52:26.683Z,25.56
2018-08-09T06:54:54.019Z,25.70
2018-08-09T06:57:21.412Z,25.68
2018-08-09T06:59:48.748Z,26.06
2018-08-09T07:02:16.113Z,26.13
2018-08-09T07:04:43.683Z,26.30
2018-08-09T07:07:11.030Z,26.04
2018-08-09T07:09:38.387Z,25.96
2018-08-09T07:12:05.737Z,25.78
2018-08-09T07:14:33.105Z,25.87
2018-08-09T07:17:00.540Z,26.07
2018-08-09T07:19:27.930Z,25.76
2018-08-09T07:21:55.319Z,25.56
2018-08-09T07:24:22.697Z,26.17
2018-08-09T07:26:50.040Z,26.13
2018-08-09T07:29:18.146Z,26.22
2018-08-09T07:31:45.548Z,26.88
2018-08-09T07:34:12.931Z,27.28
2018-08-09T07:36:41.084Z,27.53
2018-08-09T07:39:09.092Z,27.48
2018-08-09T07:41:37.523Z,28.48
2018-08-09T07:44:04.953Z,28.64
2018-08-09T07:46:32.346Z,28.93
2018-08-09T07:48:59.824Z,29.42
2018-08-09T07:51:27.146Z,29.40
2018-08-09T07:53:54.430Z,29.36
2018-08-09T07:56:22.524Z,29.27
2018-08-09T07:58:50.480Z,29.49
2018-08-09T08:01:19.187Z,29.92
2018-08-09T08:03:46.916Z,29.93
2018-08-09T08:06:14.297Z,29.92
2018-08-09T08:08:41.862Z,30.39
2018-08-09T08:11:09.212Z,30.35
2018-08-09T08:13:46.981Z,30.59
2018-08-09T08:16:14.545Z,31.16
2018-08-09T08:18:42.007Z,31.21
2018-08-09T08:21:09.543Z,31.75
2018-08-09T08:23:36.930Z,31.51
2018-08-09T08:26:04.537Z,31.24
2018-08-09T08:28:31.896Z,31.21
2018-08-09T08:30:59.465Z,31.17
2018-08-09T08:33:29.755Z,31.12
2018-08-09T08:35:57.154Z,31.31
2018-08-09T08:38:24.504Z,31.42
2018-08-09T08:40:51.850Z,31.51
2018-08-09T08:43:19.260Z,31.55
2018-08-09T08:45:47.201Z,31.88
2018-08-09T08:48:14.618Z,31.62
2018-08-09T08:50:42.078Z,31.49
2018-08-09T08:53:09.614Z,31.52
2018-08-09T08:55:37.017Z,31.01
2018-08-09T08:58:04.484Z,32.05
2018-08-09T09:00:33.306Z,32.28
2018-08-09T09:03:00.765Z,32.51
2018-08-09T09:05:28.222Z,31.84
2018-08-09T09:07:55.622Z,32.72
2018-08-09T09:10:23.742Z,32.87
2018-08-09T09:12:52.251Z,32.92
2018-08-09T09:15:20.283Z,32.98
2018-08-09T09:17:48.413Z,33.43
2018-08-09T09:20:16.808Z,33.48
2018-08-09T09:22:44.743Z,33.42
2018-08-09T09:25:12.395Z,33.16
2018-08-09T09:27:39.944Z,32.48
2018-08-09T09:30:11.214Z,33.53
2018-08-09T09:32:39.275Z,33.42
2018-08-09T09:35:07.083Z,33.82
2018-08-09T09:37:34.500Z,33.97
2018-08-09T09:40:01.993Z,33.79
2018-08-09T09:42:29.727Z,33.96
2018-08-09T09:44:56.998Z,34.08
2018-08-09T09:47:24.345Z,34.60
2018-08-09T09:49:51.924Z,34.54
2018-08-09T09:52:19.449Z,35.02
2018-08-09T09:54:47.602Z,34.96
2018-08-09T09:57:14.939Z,34.84
2018-08-09T09:59:42.319Z,35.02
2018-08-09T10:02:09.688Z,35.18
2018-08-09T10:04:37.069Z,35.58
2018-08-09T10:07:04.735Z,35.11
2018-08-09T10:09:32.110Z,35.05
2018-08-09T10:12:00.618Z,35.46
2018-08-09T10:14:27.999Z,36.18
2018-08-09T10:16:55.367Z,35.65
2018-08-09T10:19:22.818Z,35.20
2018-08-09T10:21:50.191Z,34.97
2018-08-09T10:24:18.038Z,35.74
2018-08-09T10:26:45.374Z,36.03
2018-08-09T10:29:12.734Z,35.73
2018-08-09T10:31:40.227Z,35.73
2018-08-09T10:34:07.679Z,35.33
2018-08-09T10:36:35.171Z,35.41
2018-08-09T10:39:02.755Z,35.83
2018-08-09T10:41:30.448Z,35.98
2018-08-09T10:43:57.801Z,36.18
2018-08-09T10:46:25.125Z,36.66
2018-08-09T10:48:54.272Z,36.57
2018-08-09T10:51:21.641Z,36.20
2018-08-09T10:53:48.982Z,36.39
2018-08-09T10:56:17.116Z,36.52
2018-08-09T10:58:44.491Z,36.34
2018-08-09T11:01:11.853Z,36.37
2018-08-09T11:03:39.205Z,36.20
2018-08-09T11:06:06.766Z,36.26
2018-08-09T11:08:34.152Z,36.69
2018-08-09T11:11:08.126Z,36.36
2018-08-09T11:13:35.587Z,36.30
2018-08-09T11:16:03.110Z,36.65
2018-08-09T11:18:30.502Z,37.38
2018-08-09T11:20:57.831Z,37.15
2018-08-09T11:23:25.262Z,37.10
2018-08-09T11:25:52.735Z,37.15
2018-08-09T11:28:20.100Z,37.29
2018-08-09T11:30:48.527Z,37.71
2018-08-09T11:33:15.824Z,38.03
2018-08-09T11:35:43.264Z,38.06
2018-08-09T11:38:10.634Z,37.43
2018-08-09T11:40:38.075Z,37.07
2018-08-09T11:43:05.630Z,37.32
2018-08-09T11:45:33.051Z,37.09
2018-08-09T11:48:01.136Z,37.16
2018-08-09T11:50:28.507Z,37.66
2018-08-09T11:52:55.913Z,37.73
2018-08-09T11:55:23.559Z,37.67
2018-08-09T11:57:50.908Z,37.75
2018-08-09T12:00:18.323Z,36.81
2018-08-09T12:02:46.533Z,37.39
2018-08-09T12:05:13.938Z,38.15
2018-08-09T12:07:41.359Z,38.18
2018-08-09T12:10:08.720Z,37.60
2018-08-09T12:12:36.086Z,36.93
2018-08-09T12:15:04.414Z,36.81
2018-08-09T12:17:31.744Z,37.21
2018-08-09T12:19:59.079Z,36.77
2018-08-09T12:22:26.455Z,36.36
2018-08-09T12:24:53.856Z,36.15
2018-08-09T12:27:21.392Z,36.36
2018-08-09T12:29:48.782Z,36.52
2018-08-09T12:32:16.164Z,35.78
2018-08-09T12:34:43.581Z,36.15
2018-08-09T12:37:13.263Z,36.23
2018-08-09T12:39:40.584Z,36.12
2018-08-09T12:42:08.013Z,35.64
2018-08-09T12:44:36.066Z,35.73
2018-08-09T12:47:03.556Z,35.84
2018-08-09T12:49:30.992Z,35.80
2018-08-09T12:51:58.351Z,36.31
2018-08-09T12:54:25.891Z,36.66
2018-08-09T12:56:53.333Z,36.72
2018-08-09T12:59:20.732Z,36.70
2018-08-09T13:01:48.651Z,36.78
2018-08-09T13:04:16.080Z,37.02
2018-08-09T13:06:43.672Z,37.08
2018-08-09T13:09:11.955Z,36.99
2018-08-09T13:11:40.123Z,37.29
2018-08-09T13:14:07.899Z,37.49
2018-08-09T13:16:35.326Z,36.77
2018-08-09T13:19:02.761Z,35.92
2018-08-09T13:21:30.122Z,35.48
2018-08-09T13:23:57.555Z,35.48
2018-08-09T13:26:25.686Z,35.79
2018-08-09T13:28:54.126Z,36.09
2018-08-09T13:31:21.498Z,35.36
2018-08-09T13:33:48.985Z,35.00
2018-08-09T13:36:16.355Z,34.91
2018-08-09T13:38:43.807Z,34.88
2018-08-09T13:41:11.638Z,34.93
2018-08-09T13:43:40.210Z,35.14
2018-08-09T13:46:08.314Z,35.55
2018-08-09T13:48:36.694Z,35.40
2018-08-09T13:51:04.623Z,35.34
2018-08-09T13:53:32.829Z,35.22
2018-08-09T13:56:00.184Z,35.23
2018-08-09T13:58:27.692Z,35.37
2018-08-09T14:00:55.060Z,35.80
2018-08-09T14:03:22.441Z,35.64
2018-08-09T14:05:49.809Z,35.53
2018-08-09T14:08:17.178Z,35.44
2018-08-09T14:10:44.594Z,35.18
2018-08-09T14:13:12.010Z,35.02
2018-08-09T14:15:40.425Z,34.99
2018-08-09T14:18:07.783Z,34.81
2018-08-09T14:20:35.163Z,34.81
2018-08-09T14:23:02.755Z,34.91
2018-08-09T14:25:32.483Z,34.83
2018-08-09T14:27:59.902Z,34.83
2018-08-09T14:30:27.303Z,35.06
2018-08-09T14:32:54.740Z,35.49
2018-08-09T14:35:22.121Z,35.98
2018-08-09T14:37:49.494Z,36.02
2018-08-09T14:40:17.026Z,36.31
2018-08-09T14:42:44.404Z,36.31
2018-08-09T14:45:13.727Z,36.23
2018-08-09T14:47:41.167Z,36.12
2018-08-09T14:50:09.138Z,36.31
2018-08-09T14:52:38.608Z,36.28
2018-08-09T14:55:08.619Z,36.14
2018-08-09T14:57:36.036Z,35.82
2018-08-09T15:00:06.439Z,35.50
2018-08-09T15:02:33.776Z,35.38
2018-08-09T15:05:01.209Z,35.44
2018-08-09T15:07:28.718Z,35.61
2018-08-09T15:09:56.131Z,35.65
2018-08-09T15:12:24.215Z,35.64
2018-08-09T15:14:51.564Z,35.48
2018-08-09T15:17:18.924Z,35.20
2018-08-09T15:19:46.563Z,34.90
2018-08-09T15:22:14.010Z,34.57
2018-08-09T15:24:41.375Z,34.41
2018-08-09T15:27:08.774Z,34.38
2018-08-09T15:29:36.230Z,34.39
2018-08-09T15:32:04.528Z,34.54
2018-08-09T15:34:32.244Z,34.79
2018-08-09T15:37:00.124Z,34.95
2018-08-09T15:39:27.715Z,35.09
2018-08-09T15:41:55.197Z,34.88
2018-08-09T15:44:22.837Z,34.79
2018-08-09T15:46:50.235Z,34.79
2018-08-09T15:49:17.596Z,34.67
2018-08-09T15:51:45.240Z,34.40
2018-08-09T15:54:12.666Z,34.46
2018-08-09T15:56:40.114Z,34.41
2018-08-09T15:59:07.408Z,34.27
2018-08-09T16:01:34.791Z,34.11
2018-08-09T16:04:02.301Z,34.03
2018-08-09T16:06:29.667Z,34.01
2018-08-09T16:08:57.115Z,34.06
2018-08-09T16:11:24.446Z,34.20
2018-08-09T16:13:53.157Z,34.08
2018-08-09T16:16:20.594Z,34.01
2018-08-09T16:18:48.623Z,33.97
2018-08-09T16:21:15.999Z,33.45
2018-08-09T16:23:43.407Z,31.55
2018-08-09T16:26:10.718Z,29.89
2018-08-09T16:28:38.754Z,29.52
2018-08-09T16:31:06.425Z,29.27
2018-08-09T16:33:33.796Z,29.35
2018-08-09T16:36:01.664Z,28.98
2018-08-09T16:38:29.076Z,28.94
2018-08-09T16:40:57.046Z,29.04
2018-08-09T16:43:24.624Z,28.67
2018-08-09T16:45:52.080Z,28.32
2018-08-09T16:48:19.568Z,28.08
2018-08-09T16:50:47.534Z,27.71
2018-08-09T16:53:14.875Z,27.60
2018-08-09T16:55:42.310Z,27.41
2018-08-09T16:58:09.726Z,27.36
2018-08-09T17:00:37.176Z,27.40
2018-08-09T17:03:05.323Z,27.43
2018-08-09T17:05:32.706Z,27.26
2018-08-09T17:08:00.456Z,27.19
2018-08-09T17:10:28.225Z,27.10
2018-08-09T17:12:55.636Z,27.06
2018-08-09T17:15:25.463Z,27.14
2018-08-09T17:17:53.529Z,27.11
2018-08-09T17:20:26.064Z,27.05
2018-08-09T17:22:53.862Z,26.97
2018-08-09T17:25:21.297Z,27.04
2018-08-09T17:27:51.182Z,27.14
2018-08-09T17:30:20.278Z,27.12
2018-08-09T17:32:48.369Z,27.13
2018-08-09T17:35:16.596Z,27.13
2018-08-09T17:37:44.457Z,27.03
2018-08-09T17:40:18.150Z,26.96
2018-08-09T17:42:46.474Z,26.99
2018-08-09T17:45:14.517Z,26.92
2018-08-09T17:47:42.217Z,26.81
2018-08-09T17:50:11.687Z,26.76
2018-08-09T17:52:39.398Z,26.73
2018-08-09T17:55:09.557Z,26.66
2018-08-09T17:57:38.008Z,26.64
2018-08-09T18:00:09.157Z,26.66
2018-08-09T18:02:37.071Z,26.73
2018-08-09T18:05:07.120Z,26.67
2018-08-09T18:07:34.961Z,26.65
2018-08-09T18:10:19.830Z,26.63
2018-08-09T18:12:50.849Z,26.54
2018-08-09T18:15:19.999Z,26.41
2018-08-09T18:17:48.219Z,26.32
2018-08-09T18:20:17.506Z,26.28
2018-08-09T18:22:45.488Z,26.30
2018-08-09T18:25:13.816Z,26.24
2018-08-09T18:27:41.336Z,26.19
2018-08-09T18:30:12.607Z,26.16
2018-08-09T18:32:40.383Z,26.16
2018-08-09T18:35:08.925Z,26.17
2018-08-09T18:37:37.974Z,26.15
2018-08-09T18:40:07.339Z,26.16
2018-08-09T18:42:35.566Z,26.17
2018-08-09T18:45:04.545Z,26.21
2018-08-09T18:47:32.250Z,26.22
2018-08-09T18:50:01.640Z,26.15
2018-08-09T18:52:29.728Z,26.18
2018-08-09T18:54:57.797Z,26.15
2018-08-09T18:57:25.393Z,26.08
2018-08-09T18:59:53.087Z,26.04
2018-08-09T19:02:20.563Z,25.95
2018-08-09T19:04:48.409Z,25.87
2018-08-09T19:07:15.878Z,25.86
2018-08-09T19:09:43.282Z,25.86
2018-08-09T19:12:10.717Z,25.90
2018-08-09T19:14:38.384Z,25.84
2018-08-09T19:17:05.896Z,25.86
2018-08-09T19:19:33.777Z,25.84
2018-08-09T19:22:01.720Z,25.79
2018-08-09T19:24:29.392Z,25.71
2018-08-09T19:26:56.950Z,25.70
2018-08-09T19:29:25.470Z,25.70
2018-08-09T19:31:53.642Z,25.63
2018-08-09T19:34:21.287Z,25.47
2018-08-09T19:36:49.805Z,25.49
2018-08-09T19:39:18.362Z,25.39
2018-08-09T19:41:46.979Z,25.32
2018-08-09T19:44:15.467Z,25.26
2018-08-09T19:46:43.403Z,25.21
2018-08-09T19:49:11.141Z,25.13
2018-08-09T19:51:38.691Z,25.01
2018-08-09T19:54:06.939Z,25.01
2018-08-09T19:56:35.084Z,24.92
2018-08-09T19:59:03.080Z,24.87
2018-08-09T20:01:30.496Z,24.83
2018-08-09T20:03:58.844Z,24.76
2018-08-09T20:06:26.343Z,24.66
2018-08-09T20:08:53.783Z,24.65
2018-08-09T20:11:22.085Z,24.64
2018-08-09T20:13:49.509Z,24.58
2018-08-09T20:16:17.546Z,24.52
2018-08-09T20:18:44.842Z,24.53
2018-08-09T20:21:12.283Z,24.46
2018-08-09T20:23:39.611Z,24.45
2018-08-09T20:26:06.938Z,24.43
2018-08-09T20:28:34.203Z,24.43
2018-08-09T20:31:01.491Z,24.40
2018-08-09T20:33:28.924Z,24.37
2018-08-09T20:35:56.312Z,24.34
2018-08-09T20:38:23.635Z,24.27
2018-08-09T20:40:50.935Z,24.21
2018-08-09T20:43:18.253Z,24.20
2018-08-09T20:45:45.512Z,24.17
2018-08-09T20:48:12.891Z,24.10
2018-08-09T20:50:40.185Z,24.07
2018-08-09T20:53:07.704Z,24.07
2018-08-09T20:55:35.073Z,24.05
2018-08-09T20:58:02.540Z,23.97
2018-08-09T21:00:32.440Z,23.94
2018-08-09T21:03:01.116Z,23.92
2018-08-09T21:05:30.885Z,23.86
2018-08-09T21:07:58.320Z,23.85
2018-08-09T21:10:26.073Z,23.84
2018-08-09T21:12:53.427Z,23.82
2018-08-09T21:15:20.969Z,23.75
2018-08-09T21:17:48.338Z,23.74
2018-08-09T21:20:15.878Z,23.69
2018-08-09T21:22:44.290Z,23.70
2018-08-09T21:25:11.952Z,23.70
2018-08-09T21:27:39.279Z,23.69
2018-08-09T21:30:08.423Z,23.65
2018-08-09T21:32:35.995Z,23.64
2018-08-09T21:35:03.816Z,23.59
2018-08-09T21:37:31.076Z,23.57
2018-08-09T21:39:58.368Z,23.51
2018-08-09T21:42:25.634Z,23.46
2018-08-09T21:44:52.907Z,23.45
2018-08-09T21:47:20.213Z,23.38
2018-08-09T21:49:47.984Z,23.36
2018-08-09T21:52:15.294Z,23.33
2018-08-09T21:54:42.551Z,23.32
2018-08-09T21:57:10.071Z,23.33
2018-08-09T21:59:37.370Z,23.29
2018-08-09T22:02:05.000Z,23.24
2018-08-09T22:04:35.480Z,23.23
2018-08-09T22:07:08.532Z,23.17
2018-08-09T22:09:41.539Z,23.19
2018-08-09T22:12:14.479Z,23.13
2018-08-09T22:14:47.330Z,23.09
2018-08-09T22:17:20.211Z,23.10
2018-08-09T22:19:53.154Z,23.03
2018-08-09T22:22:23.436Z,23.06
2018-08-09T22:24:50.694Z,22.99
2018-08-09T22:27:18.060Z,22.85
2018-08-09T22:29:45.317Z,22.83
2018-08-09T22:32:12.659Z,22.83
2018-08-09T22:34:39.911Z,22.82
2018-08-09T22:37:07.287Z,22.77
2018-08-09T22:39:34.535Z,22.72
2018-08-09T22:42:01.851Z,22.73
2018-08-09T22:44:29.118Z,22.68
2018-08-09T22:46:56.387Z,22.64
2018-08-09T22:49:23.679Z,22.57
2018-08-09T22:51:50.925Z,22.52
2018-08-09T22:54:18.210Z,22.48
2018-08-09T22:56:45.511Z,22.43
2018-08-09T22:59:12.852Z,22.43
2018-08-09T23:01:40.114Z,22.43
2018-08-09T23:04:07.418Z,22.43
2018-08-09T23:06:34.648Z,22.34
2018-08-09T23:09:02.006Z,22.29
2018-08-09T23:11:29.321Z,22.26
2018-08-09T23:13:56.647Z,22.19
2018-08-09T23:16:23.947Z,22.20
2018-08-09T23:18:52.242Z,22.17
2018-08-09T23:21:19.515Z,22.06
2018-08-09T23:23:46.834Z,22.02
2018-08-09T23:26:14.087Z,22.04
2018-08-09T23:28:41.441Z,22.02
2018-08-09T23:31:08.680Z,22.03
2018-08-09T23:33:36.042Z,22.03
2018-08-09T23:36:03.370Z,22.02
2018-08-09T23:38:30.624Z,21.98
2018-08-09T23:40:57.922Z,21.98
2018-08-09T23:43:25.231Z,21.93
2018-08-09T23:45:52.490Z,21.92
2018-08-09T23:48:19.814Z,21.84
2018-08-09T23:50:47.177Z,21.83
2018-08-09T23:53:14.487Z,21.79
2018-08-09T23:55:41.746Z,21.80
2018-08-09T23:58:09.075Z,21.71
